createdAt,value
2019-04-13T00:00:29.814Z,12.70
2019-04-13T00:03:00.265Z,14.53
2019-04-13T00:05:32.403Z,13.03
2019-04-13T00:08:04.437Z,14.80
2019-04-13T00:10:45.374Z,15.17
2019-04-13T00:13:15.861Z,15.17
2019-04-13T00:15:46.327Z,14.10
2019-04-13T00:18:16.787Z,16.70
2019-04-13T00:20:47.271Z,14.73
2019-04-13T00:23:17.744Z,15.07
2019-04-13T00:25:48.217Z,20.37
2019-04-13T00:28:18.685Z,14.70
2019-04-13T00:30:49.956Z,15.70
2019-04-13T00:33:20.410Z,13.63
2019-04-13T00:35:50.957Z,13.60
2019-04-13T00:38:21.449Z,16.00
2019-04-13T00:40:51.947Z,16.97
2019-04-13T00:43:22.405Z,17.87
2019-04-13T00:45:52.898Z,26.80
2019-04-13T00:48:23.362Z,16.60
2019-04-13T00:50:58.034Z,14.47
2019-04-13T00:53:28.530Z,17.33
2019-04-13T00:55:58.985Z,14.70
2019-04-13T00:58:29.473Z,16.10
2019-04-13T01:00:59.960Z,14.70
2019-04-13T01:03:30.446Z,16.83
2019-04-13T01:06:00.903Z,16.30
2019-04-13T01:08:31.364Z,18.20
2019-04-13T01:11:01.857Z,18.27
2019-04-13T01:13:32.321Z,17.53
2019-04-13T01:16:02.811Z,16.33
2019-04-13T01:18:33.272Z,17.47
2019-04-13T01:21:03.766Z,15.70
2019-04-13T01:23:34.254Z,16.50
2019-04-13T01:26:04.786Z,15.07
2019-04-13T01:28:35.274Z,18.10
2019-04-13T01:31:05.765Z,15.20
2019-04-13T01:33:36.219Z,19.90
2019-04-13T01:36:06.671Z,17.10
2019-04-13T01:38:37.158Z,13.97
2019-04-13T01:41:07.622Z,17.03
2019-04-13T01:43:38.110Z,17.30
2019-04-13T01:46:08.636Z,15.17
2019-04-13T01:48:39.118Z,16.00
2019-04-13T01:51:09.607Z,16.87
2019-04-13T01:53:40.058Z,18.20
2019-04-13T01:56:10.549Z,13.87
2019-04-13T01:58:41.013Z,15.30
2019-04-13T02:01:11.269Z,13.77
2019-04-13T02:03:43.372Z,15.23
2019-04-13T02:06:13.860Z,14.50
2019-04-13T02:08:45.959Z,17.90
2019-04-13T02:11:18.082Z,15.70
2019-04-13T02:13:48.540Z,17.43
2019-04-13T02:16:19.022Z,15.27
2019-04-13T02:18:49.516Z,16.57
2019-04-13T02:21:19.983Z,18.40
2019-04-13T02:23:50.459Z,16.10
2019-04-13T02:26:20.948Z,15.53
2019-04-13T02:28:51.411Z,16.27
2019-04-13T02:31:21.912Z,18.30
2019-04-13T02:33:52.384Z,14.63
2019-04-13T02:36:22.854Z,15.30
2019-04-13T02:38:53.685Z,17.23
2019-04-13T02:41:24.159Z,16.63
2019-04-13T02:43:54.645Z,16.30
2019-04-13T02:46:25.253Z,16.50
2019-04-13T02:48:55.750Z,14.33
2019-04-13T02:51:26.210Z,17.13
2019-04-13T02:53:56.712Z,16.40
2019-04-13T02:56:27.177Z,15.53
2019-04-13T02:58:57.737Z,17.80
2019-04-13T03:01:28.267Z,17.23
2019-04-13T03:03:58.839Z,16.63
2019-04-13T03:06:29.378Z,15.30
2019-04-13T03:08:59.937Z,16.30
2019-04-13T03:11:30.396Z,15.87
2019-04-13T03:14:00.897Z,15.47
2019-04-13T03:16:35.806Z,16.07
2019-04-13T03:19:10.574Z,17.57
2019-04-13T03:21:41.035Z,18.50
2019-04-13T03:24:11.516Z,16.60
2019-04-13T03:26:42.446Z,15.33
2019-04-13T03:29:12.975Z,15.63
2019-04-13T03:31:43.544Z,15.47
2019-04-13T03:34:14.092Z,14.07
2019-04-13T03:36:44.580Z,15.87
2019-04-13T03:39:15.043Z,17.67
2019-04-13T03:41:45.543Z,18.50
2019-04-13T03:44:16.009Z,17.83
2019-04-13T03:46:46.511Z,17.73
2019-04-13T03:49:16.966Z,16.83
2019-04-13T03:51:47.455Z,16.53
2019-04-13T03:54:17.945Z,18.20
2019-04-13T03:56:48.433Z,20.40
2019-04-13T03:59:18.949Z,14.90
2019-04-13T04:01:49.446Z,18.83
2019-04-13T04:04:22.905Z,17.07
2019-04-13T04:06:53.352Z,18.90
2019-04-13T04:09:23.855Z,17.83
2019-04-13T04:11:54.340Z,17.97
2019-04-13T04:14:24.831Z,18.70
2019-04-13T04:16:55.318Z,18.20
2019-04-13T04:19:27.254Z,17.27
2019-04-13T04:21:57.820Z,19.63
2019-04-13T04:24:28.293Z,20.80
2019-04-13T04:26:58.785Z,17.90
2019-04-13T04:29:29.257Z,18.27
2019-04-13T04:31:59.727Z,18.40
2019-04-13T04:34:30.191Z,18.97
2019-04-13T04:37:02.162Z,19.97
2019-04-13T04:39:32.653Z,15.23
2019-04-13T04:42:03.134Z,17.07
2019-04-13T04:44:33.862Z,19.60
2019-04-13T04:47:04.366Z,18.57
2019-04-13T04:49:34.861Z,16.37
2019-04-13T04:52:05.316Z,19.43
2019-04-13T04:54:35.818Z,19.30
2019-04-13T04:57:06.281Z,16.40
2019-04-13T04:59:36.778Z,19.10
2019-04-13T05:02:07.264Z,19.80
2019-04-13T05:04:37.735Z,18.63
2019-04-13T05:07:09.149Z,17.67
2019-04-13T05:09:39.616Z,19.60
2019-04-13T05:12:10.103Z,20.40
2019-04-13T05:14:40.555Z,22.60
2019-04-13T05:17:11.044Z,17.63
2019-04-13T05:19:41.514Z,19.70
2019-04-13T05:22:12.507Z,19.77
2019-04-13T05:24:42.950Z,19.33
2019-04-13T05:27:13.446Z,20.27
2019-04-13T05:29:45.287Z,21.93
2019-04-13T05:32:15.794Z,21.90
2019-04-13T05:34:46.450Z,19.17
2019-04-13T05:37:16.935Z,25.80
2019-04-13T05:39:47.427Z,25.37
2019-04-13T05:42:17.929Z,20.37
2019-04-13T05:44:48.392Z,22.37
2019-04-13T05:47:18.891Z,35.13
2019-04-13T05:49:49.362Z,36.03
2019-04-13T05:52:19.849Z,23.27
2019-04-13T05:54:50.311Z,27.23
2019-04-13T05:57:20.794Z,49.03
2019-04-13T05:59:51.247Z,32.40
2019-04-13T06:02:21.745Z,31.27
2019-04-13T06:04:52.231Z,25.33
2019-04-13T06:07:23.929Z,21.77
2019-04-13T06:09:54.765Z,18.43
2019-04-13T06:12:25.275Z,19.77
2019-04-13T06:14:55.784Z,18.47
2019-04-13T06:17:26.229Z,19.50
2019-04-13T06:19:56.720Z,19.37
2019-04-13T06:22:27.186Z,18.70
2019-04-13T06:24:57.677Z,33.30
2019-04-13T06:27:28.146Z,27.17
2019-04-13T06:30:00.941Z,18.33
2019-04-13T06:32:43.533Z,18.50
2019-04-13T06:35:15.730Z,16.93
2019-04-13T06:37:48.348Z,16.73
2019-04-13T06:40:18.397Z,19.23
2019-04-13T06:42:50.628Z,33.43
2019-04-13T06:45:21.227Z,24.30
2019-04-13T06:47:51.684Z,18.07
2019-04-13T06:50:22.179Z,16.33
2019-04-13T16:57:12.993Z,31.03
2019-04-13T17:00:01.754Z,29.70
2019-04-13T17:02:34.090Z,30.37
2019-04-13T17:05:07.314Z,25.13
2019-04-13T17:07:38.371Z,30.50
2019-04-13T17:10:09.076Z,31.60
2019-04-13T17:12:43.225Z,30.10
2019-04-13T17:15:12.712Z,28.80
2019-04-13T17:17:43.373Z,31.90
2019-04-13T17:20:14.134Z,32.63
2019-04-13T17:23:02.241Z,30.53
2019-04-13T17:25:37.137Z,25.60
2019-04-13T17:28:15.274Z,25.20
2019-04-13T17:30:49.438Z,22.33
2019-04-13T17:33:27.545Z,22.27
2019-04-13T17:35:59.753Z,26.60
2019-04-13T17:38:30.786Z,27.00
2019-04-13T17:41:16.629Z,23.53
2019-04-13T17:43:45.503Z,24.40
2019-04-13T17:46:32.886Z,22.00
2019-04-13T17:49:07.224Z,28.27
2019-04-13T17:51:37.630Z,21.63
2019-04-13T17:54:10.455Z,25.30
2019-04-13T17:56:41.044Z,25.50
2019-04-13T17:59:29.897Z,25.30
2019-04-13T18:02:08.993Z,30.83
2019-04-13T18:04:56.321Z,27.93
2019-04-13T18:07:32.583Z,28.43
2019-04-13T18:10:13.485Z,27.93
2019-04-13T18:13:02.878Z,28.50
2019-04-13T18:15:34.631Z,27.87
2019-04-13T18:18:08.107Z,27.70
2019-04-13T18:20:38.759Z,24.50
2019-04-13T18:23:09.230Z,25.40
2019-04-13T18:25:45.843Z,28.50
2019-04-13T18:28:12.920Z,24.83
2019-04-13T18:30:45.471Z,27.80
2019-04-13T18:33:16.048Z,23.60
2019-04-13T18:35:47.768Z,26.07
2019-04-13T18:38:19.357Z,28.07
2019-04-13T18:40:50.018Z,29.00
2019-04-13T18:43:24.513Z,27.40
2019-04-13T18:45:53.757Z,24.60
2019-04-13T18:48:25.017Z,25.07
2019-04-13T18:50:56.238Z,24.47
2019-04-13T18:53:27.706Z,23.63
2019-04-13T18:55:58.236Z,31.07
2019-04-13T18:58:29.436Z,26.33
2019-04-13T19:01:00.037Z,33.57
2019-04-13T19:03:30.551Z,26.43
2019-04-13T19:06:01.024Z,23.07
2019-04-13T19:08:32.275Z,25.50
2019-04-13T19:11:02.740Z,24.10
2019-04-13T19:13:33.237Z,30.13
2019-04-13T19:16:03.756Z,27.03
2019-04-13T19:18:34.227Z,26.90
2019-04-13T19:21:04.722Z,25.13
2019-04-13T19:23:38.857Z,26.30
2019-04-13T19:26:11.389Z,26.43
2019-04-13T19:28:42.696Z,24.20
2019-04-13T19:31:13.254Z,29.30
2019-04-13T19:33:43.711Z,26.43
2019-04-13T19:36:14.290Z,26.20
2019-04-13T19:38:44.740Z,26.87
2019-04-13T19:41:15.319Z,29.17
2019-04-13T19:43:45.869Z,28.27
2019-04-13T19:46:16.377Z,28.80
2019-04-13T19:48:46.867Z,29.10
2019-04-13T19:51:19.079Z,25.27
2019-04-13T19:53:49.345Z,30.03
2019-04-13T19:56:21.523Z,26.40
2019-04-13T19:58:52.103Z,27.37
2019-04-13T20:01:24.588Z,26.23
2019-04-13T20:03:55.096Z,25.13
2019-04-13T20:06:25.552Z,26.63
2019-04-13T20:08:56.167Z,26.37
2019-04-13T20:11:26.611Z,26.47
2019-04-13T20:14:03.823Z,25.77
2019-04-13T20:16:29.815Z,26.90
2019-04-13T20:19:00.462Z,25.83
2019-04-13T20:21:30.960Z,23.67
2019-04-13T20:24:02.284Z,28.43
2019-04-13T20:26:33.902Z,25.10
2019-04-13T20:29:05.615Z,25.50
2019-04-13T20:31:37.437Z,25.70
2019-04-13T20:34:07.947Z,26.17
2019-04-13T20:36:39.909Z,25.93
2019-04-13T20:39:11.358Z,24.10
2019-04-13T20:41:50.430Z,26.30
2019-04-13T20:44:17.355Z,26.00
2019-04-13T20:46:47.344Z,24.20
2019-04-13T20:49:17.994Z,26.23
2019-04-13T20:51:49.510Z,24.83
2019-04-13T20:54:20.149Z,24.30
2019-04-13T20:56:51.392Z,22.93
2019-04-13T20:59:21.999Z,24.67
2019-04-13T21:01:53.754Z,26.33
2019-04-13T21:04:24.333Z,26.90
2019-04-13T21:06:54.838Z,30.33
2019-04-13T21:09:25.291Z,28.10
2019-04-13T21:11:56.768Z,26.83
2019-04-13T21:14:35.417Z,24.57
2019-04-13T21:17:00.644Z,23.17
2019-04-13T21:19:31.225Z,26.47
2019-04-13T21:22:02.824Z,24.73
2019-04-13T21:24:35.115Z,26.07
2019-04-13T21:27:05.837Z,26.40
2019-04-13T21:29:37.158Z,24.40
2019-04-13T21:32:07.928Z,27.23
2019-04-13T21:34:40.305Z,24.40
2019-04-13T21:37:11.575Z,26.90
2019-04-13T21:39:44.730Z,26.30
2019-04-13T21:42:15.195Z,25.70
2019-04-13T21:44:48.240Z,23.87
2019-04-13T21:47:20.521Z,26.17
2019-04-13T21:49:51.559Z,26.23
2019-04-13T21:52:30.271Z,27.37
2019-04-13T21:55:00.890Z,26.23
2019-04-13T21:57:31.349Z,26.67
2019-04-13T22:00:03.030Z,25.93
2019-04-13T22:02:35.441Z,23.30
2019-04-13T22:05:08.138Z,25.07
2019-04-13T22:07:39.605Z,23.43
2019-04-13T22:10:11.556Z,27.00
2019-04-13T22:12:42.172Z,26.67
2019-04-13T22:15:15.215Z,27.73
2019-04-13T22:17:44.834Z,29.50
2019-04-13T22:20:16.825Z,26.20
2019-04-13T22:22:47.493Z,27.80
2019-04-13T22:25:19.591Z,23.93
2019-04-13T22:27:57.992Z,25.30
2019-04-13T22:30:25.430Z,30.10
2019-04-13T22:32:56.036Z,30.27
2019-04-13T22:35:41.104Z,24.40
2019-04-13T22:38:11.894Z,29.73
2019-04-13T22:40:43.143Z,26.83
2019-04-13T22:43:13.652Z,26.47
2019-04-13T22:45:44.743Z,28.20
2019-04-13T22:48:23.002Z,27.40
2019-04-13T22:51:07.678Z,24.47
2019-04-13T22:53:46.178Z,22.73
2019-04-13T22:56:18.334Z,26.50
2019-04-13T22:58:49.432Z,24.23
2019-04-13T23:01:24.453Z,26.37
2019-04-13T23:03:55.089Z,25.77
2019-04-13T23:06:25.512Z,26.80
2019-04-13T23:08:56.000Z,26.00
2019-04-13T23:11:26.479Z,31.50
2019-04-13T23:13:58.271Z,29.60
2019-04-13T23:16:28.783Z,23.97
2019-04-13T23:19:00.207Z,27.20
2019-04-13T23:21:31.057Z,25.27
2019-04-13T23:24:01.705Z,31.60
2019-04-13T23:26:32.174Z,28.40
2019-04-13T23:29:02.736Z,26.10
2019-04-13T23:31:33.196Z,27.47
2019-04-13T23:34:04.886Z,29.73
2019-04-13T23:36:35.483Z,26.97
2019-04-13T23:39:08.482Z,24.40
2019-04-13T23:41:39.060Z,23.77
2019-04-13T23:44:09.538Z,24.97
2019-04-13T23:46:40.274Z,24.67
2019-04-13T23:49:10.791Z,27.40
2019-04-13T23:51:42.439Z,27.53
2019-04-13T23:54:13.034Z,30.30
2019-04-13T23:56:45.553Z,25.47
2019-04-13T23:59:20.483Z,24.07
